Time;durP1;ratioP1;P1;durP2;ratioP2;P2;SDS_P1;SDS_P2;PMS_P1;PMS_P2;Temp;Humidity;BMP_temperature;BMP_pressure;BME280_temperature;BME280_humidity;BME280_pressure;Samples;Min_cycle;Max_cycle;Signal;HPM_P1;HPM_P2
2021/12/25 00:03:32;;;;;;;32.63;21.52;;;;;;;4.66;100.00;100526.50;10538366;28;20056;-60
2021/12/25 00:08:35;;;;;;;23.25;17.92;;;;;;;4.63;100.00;100524.00;10540002;28;20048;-60
2021/12/25 00:13:41;;;;;;;33.65;21.60;;;;;;;4.47;100.00;100528.91;10539336;28;20051;-61
2021/12/25 00:18:43;;;;;;;38.35;20.60;;;;;;;4.42;100.00;100523.03;10539357;28;20044;-61
2021/12/25 00:23:46;;;;;;;41.70;21.40;;;;;;;4.34;100.00;100533.69;10542187;28;20055;-61
2021/12/25 00:28:57;;;;;;;34.33;21.52;;;;;;;4.20;100.00;100536.78;10547785;28;20044;-60
2021/12/25 00:34:01;;;;;;;38.13;21.33;;;;;;;4.19;100.00;100534.25;10547457;28;20043;-60
2021/12/25 00:39:04;;;;;;;44.10;21.80;;;;;;;4.05;100.00;100529.53;10546976;28;20048;-60
2021/12/25 00:44:06;;;;;;;36.95;21.88;;;;;;;3.91;100.00;100536.00;10546633;28;20044;-59
2021/12/25 00:49:09;;;;;;;42.90;23.10;;;;;;;3.95;100.00;100538.50;10547141;28;20093;-61
2021/12/25 00:54:13;;;;;;;52.33;25.17;;;;;;;3.93;100.00;100554.09;10544898;28;20051;-61
2021/12/25 00:59:16;;;;;;;45.03;23.23;;;;;;;4.20;100.00;100556.66;10546356;28;20135;-60
2021/12/25 01:04:18;;;;;;;30.83;18.65;;;;;;;3.84;100.00;100564.78;10545833;28;20063;-59
2021/12/25 01:09:21;;;;;;;30.98;18.08;;;;;;;3.88;100.00;100556.00;10545724;28;20052;-60
2021/12/25 01:14:47;;;;;;;27.02;17.38;;;;;;;3.60;100.00;100563.81;10545455;28;20048;-60
2021/12/25 01:25:19;;;;;;;25.67;16.75;;;;;;;3.35;100.00;100570.63;10545050;28;20499;-61
2021/12/25 01:41:14;;;;;;;23.13;16.35;;;;;;;3.43;100.00;100562.63;10545048;28;20044;-60
2021/12/25 01:51:38;;;;;;;27.90;18.20;;;;;;;3.15;100.00;100562.63;10544222;28;20071;-61
2021/12/25 01:56:40;;;;;;;27.08;18.38;;;;;;;3.04;100.00;100565.53;10543850;28;20047;-60
2021/12/25 02:01:43;;;;;;;29.95;18.83;;;;;;;3.13;100.00;100562.69;10543499;28;20055;-60
2021/12/25 02:06:45;;;;;;;31.42;20.50;;;;;;;2.91;100.00;100574.56;10543493;28;20056;-60
2021/12/25 02:11:48;;;;;;;41.10;23.13;;;;;;;3.01;100.00;100565.66;10543109;28;20514;-61
2021/12/25 02:16:58;;;;;;;44.03;25.52;;;;;;;2.93;100.00;100555.50;10543258;28;20044;-60
2021/12/25 02:22:02;;;;;;;37.05;24.17;;;;;;;2.85;100.00;100556.63;10542879;28;20081;-59
2021/12/25 02:27:05;;;;;;;43.00;27.10;;;;;;;2.76;100.00;100558.59;10542858;28;20065;-60
2021/12/25 02:32:09;;;;;;;52.95;29.42;;;;;;;2.67;100.00;100563.19;10542954;28;20048;-60
2021/12/25 02:37:11;;;;;;;62.65;32.55;;;;;;;2.73;100.00;100558.69;10542457;28;20048;-61
2021/12/25 02:42:13;;;;;;;43.05;27.30;;;;;;;2.55;100.00;100547.13;10541807;28;20422;-59
2021/12/25 02:47:20;;;;;;;35.95;24.35;;;;;;;2.51;100.00;100563.63;10542435;28;20055;-60
2021/12/25 02:52:22;;;;;;;43.55;26.58;;;;;;;2.54;100.00;100560.94;10541506;28;20059;-59
2021/12/25 02:57:24;;;;;;;45.03;27.15;;;;;;;2.48;100.00;100561.09;10541614;28;20051;-61
2021/12/25 03:02:27;;;;;;;40.20;25.38;;;;;;;2.19;100.00;100573.06;10540898;28;20062;-60
2021/12/25 03:07:29;;;;;;;46.08;27.38;;;;;;;2.25;100.00;100571.22;10541089;28;20075;-60
2021/12/25 03:12:38;;;;;;;40.72;26.40;;;;;;;2.20;100.00;100571.34;10540822;28;20044;-58
2021/12/25 03:17:40;;;;;;;42.67;25.90;;;;;;;2.17;100.00;100582.59;10539585;28;20434;-59
2021/12/25 03:22:43;;;;;;;37.60;25.33;;;;;;;2.09;100.00;100586.28;10540440;28;20052;-59
2021/12/25 03:27:46;;;;;;;39.95;26.15;;;;;;;1.99;100.00;100596.81;10540436;28;20048;-60
2021/12/25 03:32:49;;;;;;;42.10;26.90;;;;;;;2.01;100.00;100596.78;10539257;28;20048;-60
2021/12/25 03:37:51;;;;;;;39.63;25.13;;;;;;;2.00;100.00;100601.13;10540155;28;20047;-59
2021/12/25 03:42:54;;;;;;;39.35;24.20;;;;;;;1.78;100.00;100597.34;10539956;28;20044;-60
2021/12/25 03:48:07;;;;;;;40.78;25.15;;;;;;;1.86;100.00;100596.28;10540088;28;20051;-60
2021/12/25 03:57:34;;;;;;;45.78;24.98;;;;;;;1.88;100.00;100606.56;10540229;28;20052;-60
2021/12/25 03:58:47;;;;;;;44.67;26.52;;;;;;;1.90;100.00;100611.69;10545819;28;20048;-59
2021/12/25 04:04:16;;;;;;;33.50;20.55;;;;;;;1.63;100.00;100612.34;10554174;28;20067;-60
2021/12/25 04:09:23;;;;;;;33.03;21.73;;;;;;;1.72;100.00;100620.75;10553570;28;20117;-60
2021/12/25 04:14:25;;;;;;;32.42;21.67;;;;;;;1.61;100.00;100610.66;10553115;28;20052;-59
2021/12/25 04:19:28;;;;;;;42.47;25.27;;;;;;;1.64;100.00;100626.91;10553424;28;20122;-59
2021/12/25 04:24:34;;;;;;;39.03;24.23;;;;;;;1.65;100.00;100631.22;10553030;28;20506;-59
2021/12/25 04:29:48;;;;;;;41.03;24.42;;;;;;;1.71;100.00;100639.69;10553321;28;20050;-60
2021/12/25 05:06:42;;;;;;;33.00;20.15;;;;;;;1.16;100.00;100672.69;10552309;28;20048;-59
2021/12/25 05:11:45;;;;;;;38.45;20.95;;;;;;;1.11;100.00;100672.81;10546130;28;20381;-60
2021/12/25 05:16:47;;;;;;;27.08;18.40;;;;;;;1.08;100.00;100671.13;10545866;28;20044;-58
2021/12/25 05:21:50;;;;;;;28.42;19.38;;;;;;;1.30;100.00;100681.84;10545351;28;20059;-58
2021/12/25 05:26:56;;;;;;;34.03;19.55;;;;;;;0.96;100.00;100686.84;10545459;28;20047;-59
2021/12/25 05:31:58;;;;;;;24.63;16.00;;;;;;;0.98;100.00;100689.41;10544813;28;20499;-59
2021/12/25 05:37:03;;;;;;;26.67;17.38;;;;;;;0.62;100.00;100684.03;10544853;28;20044;-59
2021/12/25 05:42:06;;;;;;;15.93;11.50;;;;;;;0.73;100.00;100695.00;10544207;28;20500;-59
2021/12/25 05:47:08;;;;;;;14.25;8.93;;;;;;;0.60;100.00;100698.69;10544542;28;20047;-58
2021/12/25 05:52:10;;;;;;;11.05;8.05;;;;;;;0.52;100.00;100703.97;10544318;28;20051;-60
2021/12/25 05:57:13;;;;;;;10.25;6.68;;;;;;;0.43;100.00;100707.53;10543908;28;20040;-59
2021/12/25 06:02:15;;;;;;;8.23;6.53;;;;;;;0.36;100.00;100719.69;10542359;28;20059;-59
2021/12/25 06:07:17;;;;;;;9.80;7.22;;;;;;;0.31;100.00;100728.38;10543721;28;20052;-60
2021/12/25 06:12:20;;;;;;;7.53;6.32;;;;;;;0.32;100.00;100730.03;10543258;28;20044;-58
2021/12/25 06:17:22;;;;;;;9.02;6.07;;;;;;;0.40;100.00;100737.66;10542412;28;20055;-61
2021/12/25 06:22:25;;;;;;;7.20;5.25;;;;;;;0.07;100.00;100733.03;10542504;28;20051;-59
2021/12/25 06:27:27;;;;;;;5.85;5.20;;;;;;;0.08;100.00;100751.88;10542647;28;20044;-60
2021/12/25 06:32:29;;;;;;;6.70;5.05;;;;;;;-0.05;100.00;100748.63;10542280;28;20070;-59
2021/12/25 06:37:32;;;;;;;7.25;6.50;;;;;;;0.06;100.00;100757.06;10542687;28;20048;-59
2021/12/25 06:42:34;;;;;;;7.72;5.75;;;;;;;-0.11;100.00;100759.03;10541785;28;20044;-59
2021/12/25 06:47:37;;;;;;;9.70;6.43;;;;;;;-0.05;100.00;100775.25;10541931;28;20483;-59
2021/12/25 06:52:41;;;;;;;9.30;6.57;;;;;;;-0.29;100.00;100775.56;10542167;28;20048;-59
2021/12/25 06:57:55;;;;;;;8.43;7.03;;;;;;;-0.22;100.00;100767.75;10540288;28;20233;-59
2021/12/25 07:02:57;;;;;;;8.52;7.63;;;;;;;-0.29;100.00;100781.53;10541876;28;20131;-60
2021/12/25 07:08:00;;;;;;;9.93;6.60;;;;;;;-0.16;100.00;100771.94;10541264;28;20056;-59
2021/12/25 07:13:03;;;;;;;9.38;7.07;;;;;;;-0.23;100.00;100785.78;10540954;28;20044;-59
2021/12/25 07:18:06;;;;;;;11.65;8.30;;;;;;;-0.24;100.00;100789.22;10541830;28;20090;-60
2021/12/25 07:23:08;;;;;;;15.05;7.78;;;;;;;-0.32;100.00;100791.03;10540358;28;20051;-61
2021/12/25 07:28:10;;;;;;;9.85;6.88;;;;;;;-0.41;100.00;100789.44;10540433;28;20052;-59
2021/12/25 07:33:13;;;;;;;9.27;8.00;;;;;;;-0.30;100.00;100807.28;10539388;28;20083;-59
2021/12/25 07:38:18;;;;;;;11.57;7.53;;;;;;;-0.64;100.00;100805.13;10540490;28;20127;-60
2021/12/25 07:43:20;;;;;;;13.00;7.13;;;;;;;-0.59;100.00;100808.50;10539852;28;20476;-58
2021/12/25 07:48:25;;;;;;;11.90;7.57;;;;;;;-0.60;100.00;100810.22;10538759;28;20048;-59
2021/12/25 07:53:31;;;;;;;8.30;6.97;;;;;;;-0.66;100.00;100812.00;10539100;28;20048;-60
2021/12/25 07:58:33;;;;;;;15.90;7.03;;;;;;;-0.77;100.00;100828.41;10539816;28;20058;-61
2021/12/25 08:03:36;;;;;;;9.75;7.47;;;;;;;-0.60;100.00;100824.81;10539387;28;20056;-59
2021/12/25 08:08:38;;;;;;;8.25;7.13;;;;;;;-0.83;100.00;100830.19;10539631;28;20044;-59
2021/12/25 08:13:40;;;;;;;8.13;6.75;;;;;;;-0.83;100.00;100840.47;10538929;28;20055;-60
2021/12/25 08:18:43;;;;;;;8.02;7.22;;;;;;;-1.23;100.00;100843.38;10539222;28;20507;-60
2021/12/25 08:23:47;;;;;;;9.05;7.93;;;;;;;-0.89;100.00;100845.66;10538662;28;20048;-58
2021/12/25 08:28:50;;;;;;;10.75;7.50;;;;;;;-0.79;100.00;100847.25;10538296;28;20047;-59
2021/12/25 08:33:53;;;;;;;10.82;7.65;;;;;;;-0.93;100.00;100857.69;10538707;28;20052;-59
2021/12/25 08:38:55;;;;;;;10.50;8.48;;;;;;;-0.83;100.00;100871.31;10539374;28;20440;-59
2021/12/25 08:44:08;;;;;;;10.80;8.15;;;;;;;-1.04;100.00;100886.06;10539647;28;20131;-60
2021/12/25 08:49:16;;;;;;;10.00;7.07;;;;;;;-0.90;100.00;100883.38;10547098;28;20044;-59
2021/12/25 08:54:18;;;;;;;10.02;7.43;;;;;;;-1.08;100.00;100881.78;10545600;28;20047;-60
2021/12/25 08:59:21;;;;;;;10.55;6.90;;;;;;;-0.99;100.00;100879.16;10546230;28;20044;-59
2021/12/25 09:04:23;;;;;;;7.25;6.45;;;;;;;-0.85;100.00;100885.91;10545928;28;20098;-59
2021/12/25 09:09:26;;;;;;;7.70;5.68;;;;;;;-0.89;100.00;100894.50;10545904;28;20542;-60
2021/12/25 09:14:28;;;;;;;5.57;4.93;;;;;;;-0.77;100.00;100904.69;10546036;28;20055;-60
2021/12/25 09:19:30;;;;;;;5.05;4.50;;;;;;;-0.92;100.00;100908.25;10545572;28;20052;-59
2021/12/25 09:24:34;;;;;;;5.68;4.13;;;;;;;-0.62;100.00;100916.56;10545280;28;20044;-60
2021/12/25 09:29:37;;;;;;;6.05;4.30;;;;;;;-0.59;100.00;100917.38;10544956;28;20058;-59
2021/12/25 09:34:40;;;;;;;4.40;4.00;;;;;;;-0.10;100.00;100917.72;10543533;28;20499;-61
2021/12/25 09:39:42;;;;;;;4.97;4.47;;;;;;;1.44;100.00;100910.34;10545298;28;20055;-59
2021/12/25 09:44:44;;;;;;;5.25;3.97;;;;;;;0.95;100.00;100930.06;10544483;28;20048;-60
2021/12/25 09:49:47;;;;;;;4.90;3.38;;;;;;;0.38;99.51;100919.72;10544320;28;20040;-60
2021/12/25 09:54:49;;;;;;;3.45;2.83;;;;;;;0.38;98.70;100922.28;10543393;28;20048;-59
2021/12/25 09:59:53;;;;;;;7.60;2.83;;;;;;;-0.50;100.00;100929.28;10543915;28;20044;-59
2021/12/25 10:04:58;;;;;;;3.83;2.63;;;;;;;-0.65;100.00;100932.84;10543419;28;20063;-59
2021/12/25 10:10:14;;;;;;;3.78;2.42;;;;;;;-0.64;100.00;100932.00;10543899;28;20044;-59
2021/12/25 10:15:20;;;;;;;2.00;1.90;;;;;;;-0.64;100.00;100936.28;10543656;28;20127;-59
2021/12/25 10:20:24;;;;;;;3.63;2.05;;;;;;;-1.03;100.00;100928.03;10543116;28;20051;-60
2021/12/25 10:25:34;;;;;;;2.00;1.80;;;;;;;-0.82;100.00;100929.59;10542946;28;20048;-59
2021/12/25 10:30:54;;;;;;;29.65;2.42;;;;;;;-0.63;100.00;100935.41;10541656;28;20052;-59
2021/12/25 10:36:06;;;;;;;2.40;1.63;;;;;;;-0.85;100.00;100927.88;10541634;28;20055;-59
2021/12/25 10:41:18;;;;;;;3.15;1.50;;;;;;;0.14;95.34;100919.16;10542272;28;20048;-60
2021/12/25 10:46:21;;;;;;;3.30;1.48;;;;;;;-0.50;94.26;100910.44;10542435;28;20040;-60
2021/12/25 10:51:26;;;;;;;1.55;1.45;;;;;;;-0.37;93.09;100909.41;10542115;28;20056;-59
2021/12/25 10:56:37;;;;;;;1.83;1.67;;;;;;;-0.39;93.48;100904.31;10542372;28;20044;-61
2021/12/25 11:01:47;;;;;;;3.17;1.70;;;;;;;0.28;91.20;100901.78;10541082;28;20393;-59
2021/12/25 11:06:49;;;;;;;3.58;2.33;;;;;;;0.78;90.04;100894.22;10540575;28;20121;-60
2021/12/25 11:12:30;;;;;;;3.15;1.42;;;;;;;0.33;88.53;100897.44;10541059;28;20400;-61
2021/12/25 11:17:33;;;;;;;3.92;1.40;;;;;;;-0.37;89.41;100896.56;10541098;28;20381;-59
2021/12/25 11:22:50;;;;;;;2.05;1.40;;;;;;;-0.48;91.21;100888.97;10540531;28;20044;-60
2021/12/25 11:27:54;;;;;;;1.42;1.33;;;;;;;-0.43;92.57;100894.91;10539202;28;20051;-60
2021/12/25 11:32:56;;;;;;;2.75;1.45;;;;;;;-0.52;91.82;100904.44;10540306;28;20062;-59
2021/12/25 11:37:58;;;;;;;1.83;1.30;;;;;;;-0.36;93.95;100906.00;10539977;28;20051;-60
2021/12/25 11:43:04;;;;;;;1.27;0.93;;;;;;;0.30;93.20;100891.47;10539925;28;20392;-60
2021/12/25 11:48:32;;;;;;;1.95;1.60;;;;;;;0.42;90.72;100885.31;10540485;28;20047;-59
2021/12/25 11:54:04;;;;;;;3.22;1.33;;;;;;;1.69;84.78;100887.50;10537092;28;20048;-59
2021/12/25 11:59:17;;;;;;;4.20;1.90;;;;;;;1.02;85.25;100887.00;10539945;28;20051;-59
2021/12/25 12:04:24;;;;;;;3.33;1.67;;;;;;;0.54;86.89;100878.25;10539409;28;20408;-60
2021/12/25 12:09:46;;;;;;;0.88;0.88;;;;;;;-0.15;87.01;100886.03;10539456;28;20492;-60
2021/12/25 12:15:24;;;;;;;;;;;;;;;-0.08;87.55;100887.69;10539951;28;20048;-60
2021/12/25 12:20:40;;;;;;;2.20;1.13;;;;;;;0.14;87.62;100886.53;10468249;28;19924;-60
2021/12/25 12:26:00;;;;;;;1.83;1.20;;;;;;;0.05;88.73;100880.66;10547396;28;20051;-59
2021/12/25 12:31:02;;;;;;;1.45;1.05;;;;;;;-0.13;90.69;100880.00;10547627;28;20051;-60
2021/12/25 12:36:21;;;;;;;5.63;1.10;;;;;;;-0.36;87.45;100898.28;10547386;28;20054;-61
2021/12/25 12:41:34;;;;;;;4.22;1.08;;;;;;;-0.24;89.06;100895.56;10546059;28;20044;-59
2021/12/25 12:46:48;;;;;;;1.35;1.15;;;;;;;-0.24;88.35;100905.84;10546799;28;20056;-60
2021/12/25 12:52:09;;;;;;;1.88;1.00;;;;;;;-0.22;87.45;100904.13;10546464;28;20488;-59
2021/12/25 12:57:42;;;;;;;1.40;1.20;;;;;;;-0.15;88.53;100896.31;10546367;28;20044;-60
2021/12/25 13:02:47;;;;;;;1.58;1.23;;;;;;;-0.40;88.93;100896.63;10533464;28;20043;-60
2021/12/25 13:07:53;;;;;;;1.10;1.00;;;;;;;-0.44;87.95;100897.50;10546380;28;20090;-60
2021/12/25 13:13:12;;;;;;;2.20;1.20;;;;;;;-0.62;86.48;100901.97;10546495;28;20052;-59
2021/12/25 13:18:16;;;;;;;1.95;1.15;;;;;;;-0.57;88.01;100901.94;10545526;28;20044;-60
2021/12/25 13:23:33;;;;;;;2.40;1.67;;;;;;;-0.49;90.38;100897.53;10545337;28;20499;-59
2021/12/25 13:28:41;;;;;;;2.13;1.30;;;;;;;-0.30;88.14;100887.06;10545520;28;20059;-60
2021/12/25 13:33:47;;;;;;;5.18;1.23;;;;;;;-0.56;87.32;100886.47;10543898;28;20055;-60
2021/12/25 13:38:58;;;;;;;1.88;1.10;;;;;;;-0.39;88.08;100900.88;10545406;28;20070;-60
2021/12/25 13:44:30;;;;;;;11.35;1.73;;;;;;;-0.54;87.37;100903.59;10544518;28;20491;-60
2021/12/25 13:49:38;;;;;;;1.33;1.08;;;;;;;-0.71;85.56;100906.34;10543420;28;20515;-59
2021/12/25 13:54:43;;;;;;;2.88;1.50;;;;;;;-0.56;87.61;100896.75;10544182;28;20060;-59
2021/12/25 13:59:56;;;;;;;2.03;1.08;;;;;;;-0.71;87.08;100893.47;10526650;28;20040;-59
2021/12/25 14:04:58;;;;;;;2.15;1.30;;;;;;;-0.78;86.46;100890.13;10544140;28;20048;-59
2021/12/25 14:10:22;;;;;;;2.83;1.50;;;;;;;-0.85;85.00;100894.47;10543876;28;20055;-59
2021/12/25 14:15:30;;;;;;;2.55;1.23;;;;;;;-0.79;86.67;100902.13;10543302;28;20052;-58
2021/12/25 14:20:36;;;;;;;1.20;1.10;;;;;;;-0.88;86.45;100897.06;10543169;28;20090;-60
2021/12/25 14:25:41;;;;;;;6.20;1.58;;;;;;;-0.90;87.47;100890.22;10542544;28;20051;-60
2021/12/25 14:30:57;;;;;;;1.30;1.20;;;;;;;-0.90;85.63;100909.06;10539781;28;20044;-61
2021/12/25 14:36:00;;;;;;;2.08;1.40;;;;;;;-1.01;88.59;100910.88;10542413;28;20044;-60
2021/12/25 14:41:03;;;;;;;2.08;1.15;;;;;;;-0.85;87.68;100917.59;10541157;28;20044;-61
2021/12/25 14:46:09;;;;;;;6.28;1.42;;;;;;;-1.14;86.53;100926.38;10542363;28;20048;-60
2021/12/25 14:51:17;;;;;;;2.15;1.38;;;;;;;-1.06;85.54;100920.34;10542433;28;20048;-61
2021/12/25 14:56:29;;;;;;;2.47;1.25;;;;;;;-0.99;86.25;100928.00;10541691;28;20426;-60
2021/12/25 15:01:39;;;;;;;3.08;1.65;;;;;;;-1.18;83.98;100928.97;10541522;28;20048;-60
2021/12/25 15:06:51;;;;;;;1.15;1.05;;;;;;;-1.27;84.28;100929.91;10541966;28;20056;-60
2021/12/25 15:12:16;;;;;;;3.17;1.73;;;;;;;-1.36;81.88;100938.53;10540922;28;20502;-62
2021/12/25 15:17:28;;;;;;;1.55;0.90;;;;;;;-1.30;85.01;100929.91;10541242;28;20051;-59
2021/12/25 15:22:30;;;;;;;5.65;1.85;;;;;;;-1.43;83.21;100929.16;10541247;28;20048;-61
2021/12/25 15:27:34;;;;;;;1.55;1.35;;;;;;;-1.50;85.23;100932.59;10541002;28;20055;-61
2021/12/25 15:32:41;;;;;;;5.15;2.20;;;;;;;-1.58;86.59;100934.34;10539366;28;20048;-60
2021/12/25 15:37:50;;;;;;;2.45;2.25;;;;;;;-1.72;86.04;100942.13;10540788;28;20040;-60
2021/12/25 15:42:53;;;;;;;3.65;2.58;;;;;;;-1.67;87.23;100954.94;10540106;28;20040;-61
2021/12/25 15:47:55;;;;;;;2.25;2.05;;;;;;;-1.84;89.91;100955.88;10540196;28;20495;-61
2021/12/25 15:53:00;;;;;;;1.83;1.70;;;;;;;-1.87;87.51;100964.44;10539232;28;20047;-60
2021/12/25 15:58:08;;;;;;;2.53;1.90;;;;;;;-1.80;86.02;100960.13;10540207;28;20040;-60
2021/12/25 16:03:11;;;;;;;3.13;1.77;;;;;;;-2.00;86.09;100957.66;10539520;28;20404;-61
2021/12/25 16:08:14;;;;;;;4.35;2.33;;;;;;;-2.19;88.14;100966.22;10538377;28;20048;-60
2021/12/25 16:13:22;;;;;;;2.40;2.20;;;;;;;-2.13;87.90;100973.94;10539517;28;20048;-61
2021/12/25 16:18:26;;;;;;;2.58;1.90;;;;;;;-2.06;87.74;100967.91;10539567;28;20051;-60
2021/12/25 16:23:28;;;;;;;4.53;1.70;;;;;;;-2.19;87.79;100979.06;10539312;28;20044;-61
2021/12/25 16:28:31;;;;;;;2.67;1.60;;;;;;;-2.09;87.76;100980.75;10538282;28;20044;-59
2021/12/25 16:33:33;;;;;;;1.73;1.60;;;;;;;-2.30;83.72;100985.06;10538912;28;20059;-59
2021/12/25 16:38:39;;;;;;;1.95;1.50;;;;;;;-2.23;83.25;100987.63;10538990;28;20507;-60
2021/12/25 16:43:42;;;;;;;2.08;1.58;;;;;;;-2.25;83.33;100985.06;10538431;28;20063;-59
2021/12/25 16:48:45;;;;;;;1.55;1.42;;;;;;;-2.32;82.93;100986.78;10538738;28;20044;-60
2021/12/25 16:53:47;;;;;;;1.92;1.58;;;;;;;-2.37;83.48;100982.50;10538075;28;20060;-60
2021/12/25 16:58:50;;;;;;;1.50;1.35;;;;;;;-2.41;84.76;100985.94;10537775;28;20044;-60
2021/12/25 17:03:53;;;;;;;4.97;1.85;;;;;;;-2.59;80.27;100999.59;10538679;28;20060;-60
2021/12/25 17:08:56;;;;;;;4.35;2.22;;;;;;;-2.48;82.95;101003.03;10546292;28;20048;-59
2021/12/25 17:14:00;;;;;;;4.38;1.67;;;;;;;-2.56;82.53;100999.59;10545840;28;20055;-58
2021/12/25 17:19:04;;;;;;;3.47;1.88;;;;;;;-2.52;85.29;101004.75;10545663;28;20468;-60
2021/12/25 17:24:06;;;;;;;5.80;2.10;;;;;;;-2.58;83.44;101002.16;10545340;28;20044;-59
2021/12/25 17:29:09;;;;;;;5.68;2.00;;;;;;;-2.65;85.06;101003.03;10544119;28;20052;-59
2021/12/25 17:34:13;;;;;;;3.10;2.50;;;;;;;-2.87;86.63;100999.59;10545394;28;20055;-60
2021/12/25 17:39:16;;;;;;;2.65;2.00;;;;;;;-2.64;84.61;101003.03;10545074;28;20048;-62
2021/12/25 17:44:21;;;;;;;2.47;2.17;;;;;;;-2.77;84.66;100998.75;10544690;28;20052;-60
2021/12/25 17:49:24;;;;;;;2.85;1.85;;;;;;;-2.91;83.08;101000.44;10543657;28;20044;-60
2021/12/25 17:54:45;;;;;;;3.78;1.67;;;;;;;-2.91;82.28;100987.63;10544178;28;20480;-60
2021/12/25 17:59:48;;;;;;;2.75;1.80;;;;;;;-2.94;83.40;100995.31;10543962;28;20480;-60
2021/12/25 18:04:51;;;;;;;5.57;3.53;;;;;;;-3.09;83.15;100993.56;10543886;28;20052;-61
2021/12/25 18:09:53;;;;;;;7.93;1.88;;;;;;;-3.08;82.50;100993.56;10542267;28;20051;-62
2021/12/25 18:14:56;;;;;;;4.10;2.30;;;;;;;-3.12;83.20;100986.75;10543455;28;20063;-60
2021/12/25 18:19:59;;;;;;;3.05;2.45;;;;;;;-3.02;82.95;100987.63;10542489;28;20050;-60
2021/12/25 18:25:02;;;;;;;1.83;1.65;;;;;;;-3.04;83.73;100987.63;10542938;28;20044;-61
2021/12/25 18:30:06;;;;;;;2.47;2.00;;;;;;;-3.12;83.55;100988.47;10542460;28;20397;-61
2021/12/25 18:35:09;;;;;;;2.90;1.63;;;;;;;-3.08;84.74;100993.56;10542395;28;20048;-61
2021/12/25 18:40:14;;;;;;;3.08;1.95;;;;;;;-3.25;82.41;100988.41;10542137;28;20063;-61
2021/12/25 18:45:17;;;;;;;2.45;1.95;;;;;;;-3.28;81.26;100980.72;10540861;28;20063;-58
2021/12/25 18:50:23;;;;;;;2.05;1.52;;;;;;;-3.32;83.38;100986.69;10541906;28;20488;-59
2021/12/25 18:55:26;;;;;;;3.65;1.75;;;;;;;-3.40;82.76;100984.09;10542347;28;20048;-59
2021/12/25 19:00:32;;;;;;;2.28;1.52;;;;;;;-3.34;82.83;100974.75;10541740;28;20126;-60
2021/12/25 19:05:36;;;;;;;3.47;2.25;;;;;;;-3.22;84.77;100969.66;10542000;28;20060;-60
2021/12/25 19:10:40;;;;;;;3.75;2.05;;;;;;;-3.45;82.25;100972.16;10540754;28;20059;-59
2021/12/25 19:15:43;;;;;;;4.15;2.55;;;;;;;-3.41;81.88;100971.31;10541090;28;20062;-60
2021/12/25 19:20:46;;;;;;;5.03;2.47;;;;;;;-3.46;81.92;100968.75;10540725;28;20479;-60
2021/12/25 19:25:49;;;;;;;3.78;1.95;;;;;;;-3.58;82.16;100977.22;10540500;28;20484;-60
2021/12/25 19:30:52;;;;;;;6.00;1.40;;;;;;;-3.62;80.04;100969.53;10539537;28;20488;-60
2021/12/25 19:35:55;;;;;;;2.28;2.08;;;;;;;-3.65;80.96;100970.34;10540248;28;20048;-59
2021/12/25 19:41:00;;;;;;;3.13;2.83;;;;;;;-3.55;81.04;100968.69;10539985;28;20450;-60
2021/12/25 19:46:02;;;;;;;3.22;1.98;;;;;;;-3.45;82.03;100970.44;10540457;28;20044;-61
2021/12/25 19:51:07;;;;;;;1.58;1.30;;;;;;;-3.35;80.76;100968.75;10538727;28;20467;-61
2021/12/25 19:56:10;;;;;;;2.83;1.83;;;;;;;-3.38;79.18;100967.06;10540394;28;20070;-59
2021/12/25 20:01:18;;;;;;;3.05;2.10;;;;;;;-3.45;79.75;100959.34;10539784;28;20044;-59
2021/12/25 20:06:22;;;;;;;4.22;2.03;;;;;;;-3.29;78.53;100970.50;10539470;28;20534;-62
2021/12/25 20:11:25;;;;;;;1.75;1.60;;;;;;;-3.41;78.47;100959.38;10539259;28;20047;-60
2021/12/25 20:16:28;;;;;;;3.10;1.40;;;;;;;-3.50;79.41;100971.28;10539194;28;20059;-62
2021/12/25 20:21:31;;;;;;;2.50;1.70;;;;;;;-3.54;79.11;100952.50;10539245;28;20044;-60
2021/12/25 20:26:33;;;;;;;2.80;1.77;;;;;;;-3.44;79.94;100961.91;10539232;28;20047;-60
2021/12/25 20:31:35;;;;;;;3.67;1.92;;;;;;;-3.45;79.43;100956.78;10539283;28;20054;-59
2021/12/25 20:36:38;;;;;;;3.08;2.10;;;;;;;-3.54;80.41;100955.06;10537715;28;20051;-60
2021/12/25 20:41:40;;;;;;;1.63;1.40;;;;;;;-3.76;79.47;100944.75;10543320;28;20044;-61
2021/12/25 20:46:43;;;;;;;3.53;2.05;;;;;;;-3.60;79.00;100948.22;10546582;28;20388;-59
2021/12/25 20:51:48;;;;;;;3.15;2.20;;;;;;;-3.82;77.30;100954.94;10546446;28;20055;-60
2021/12/25 20:56:50;;;;;;;4.60;1.65;;;;;;;-3.73;78.61;100949.03;10546521;28;20483;-61
2021/12/25 21:01:53;;;;;;;1.95;1.70;;;;;;;-3.63;78.54;100957.56;10544917;28;20048;-60
2021/12/25 21:06:56;;;;;;;4.57;2.15;;;;;;;-3.66;78.18;100949.91;10546378;28;20052;-60
2021/12/25 21:12:01;;;;;;;4.22;2.05;;;;;;;-3.75;79.16;100945.59;10546144;28;20051;-60
2021/12/25 21:17:20;;;;;;;2.10;1.98;;;;;;;-3.86;80.18;100942.16;10545787;28;20452;-60
2021/12/25 21:22:23;;;;;;;8.13;2.80;;;;;;;-3.96;79.65;100939.53;10545604;28;20535;-59
2021/12/25 21:27:25;;;;;;;2.28;1.92;;;;;;;-3.90;78.49;100938.72;10545275;28;20048;-60
2021/12/25 21:32:28;;;;;;;3.92;1.50;;;;;;;-3.97;77.23;100936.97;10545310;28;20063;-60
2021/12/25 21:37:30;;;;;;;4.07;1.92;;;;;;;-3.87;79.47;100925.09;10544973;28;20044;-59
2021/12/25 21:42:33;;;;;;;2.22;2.03;;;;;;;-4.06;79.71;100929.28;10545068;28;20044;-60
2021/12/25 21:47:36;;;;;;;4.25;2.05;;;;;;;-3.93;79.95;100929.31;10543531;28;20052;-59
2021/12/25 21:52:39;;;;;;;3.13;1.88;;;;;;;-3.93;78.73;100939.56;10543902;28;20063;-60
2021/12/25 21:57:42;;;;;;;5.55;2.50;;;;;;;-3.80;82.15;100927.69;10542886;28;20052;-61
2021/12/25 22:02:45;;;;;;;2.90;2.47;;;;;;;-3.77;81.30;100934.50;10542607;28;20048;-58
2021/12/25 22:07:48;;;;;;;5.20;1.88;;;;;;;-3.82;80.55;100936.19;10543873;28;20081;-60
2021/12/25 22:12:51;;;;;;;1.67;1.48;;;;;;;-3.93;78.90;100941.28;10543333;28;20052;-59
2021/12/25 22:17:55;;;;;;;7.00;2.88;;;;;;;-3.69;80.05;100927.72;10541761;28;20396;-59
2021/12/25 22:22:57;;;;;;;3.75;3.45;;;;;;;-3.73;78.71;100910.66;10542494;28;20438;-60
2021/12/25 22:28:00;;;;;;;3.63;2.30;;;;;;;-3.89;77.65;100911.44;10542046;28;20048;-61
2021/12/25 22:33:02;;;;;;;3.55;2.00;;;;;;;-4.00;76.67;100919.06;10542517;28;20051;-61
2021/12/25 22:38:07;;;;;;;3.30;2.13;;;;;;;-3.96;77.43;100911.41;10542352;28;20052;-60
2021/12/25 22:43:10;;;;;;;3.95;2.15;;;;;;;-3.65;78.89;100920.88;10542147;28;20055;-59
2021/12/25 22:48:13;;;;;;;3.65;2.03;;;;;;;-4.01;76.97;100918.19;10542034;28;20399;-59
2021/12/25 22:53:15;;;;;;;4.57;2.58;;;;;;;-4.12;79.89;100907.06;10541586;28;20450;-58
2021/12/25 22:58:19;;;;;;;7.72;2.33;;;;;;;-4.04;80.79;100902.84;10541409;28;20048;-60
2021/12/25 23:03:23;;;;;;;6.57;2.40;;;;;;;-3.97;79.31;100896.94;10541140;28;20040;-59
2021/12/25 23:08:31;;;;;;;3.00;2.03;;;;;;;-4.16;78.88;100895.97;10540183;28;20090;-60
2021/12/25 23:13:34;;;;;;;3.83;1.77;;;;;;;-4.14;78.71;100884.03;10541615;28;20048;-60
2021/12/25 23:18:36;;;;;;;4.53;2.15;;;;;;;-4.26;78.02;100878.88;10540801;28;20052;-60
2021/12/25 23:23:39;;;;;;;2.80;2.08;;;;;;;-4.26;77.44;100872.91;10540431;28;20400;-60
2021/12/25 23:28:41;;;;;;;3.75;1.90;;;;;;;-4.16;79.47;100867.84;10539824;28;20055;-61
2021/12/25 23:33:44;;;;;;;3.45;2.05;;;;;;;-4.27;79.66;100858.41;10540424;28;20063;-60
2021/12/25 23:38:51;;;;;;;4.60;2.30;;;;;;;-4.32;78.63;100856.72;10540666;28;20047;-59
2021/12/25 23:44:00;;;;;;;4.65;2.55;;;;;;;-4.45;78.35;100864.28;10539737;28;20048;-61
2021/12/25 23:49:02;;;;;;;2.70;1.83;;;;;;;-4.42;78.89;100870.28;10540086;28;20048;-61
2021/12/25 23:54:07;;;;;;;8.00;2.60;;;;;;;-4.42;79.21;100862.63;10539600;28;20052;-59
2021/12/25 23:59:13;;;;;;;4.72;1.75;;;;;;;-4.61;78.94;100858.25;10539825;28;20123;-60
